createdAt,value
2018-10-18T00:02:26.849Z,33.50
2018-10-18T00:04:55.496Z,32.43
2018-10-18T00:07:24.240Z,30.87
2018-10-18T00:09:52.880Z,31.23
2018-10-18T00:12:21.782Z,33.43
2018-10-18T00:14:50.508Z,29.60
2018-10-18T00:17:53.477Z,30.23
2018-10-18T00:20:22.124Z,28.67
2018-10-18T00:22:50.755Z,30.40
2018-10-18T00:25:19.444Z,30.13
2018-10-18T00:27:48.082Z,28.80
2018-10-18T00:30:16.875Z,28.97
2018-10-18T00:32:45.657Z,30.10
2018-10-18T00:35:14.309Z,30.27
2018-10-18T00:37:42.948Z,29.60
2018-10-18T00:40:12.393Z,28.73
2018-10-18T00:42:41.454Z,30.97
2018-10-18T00:45:10.723Z,29.70
2018-10-18T00:47:39.465Z,29.03
2018-10-18T00:50:09.659Z,29.00
2018-10-18T00:52:38.244Z,29.50
2018-10-18T00:55:07.559Z,28.83
2018-10-18T00:57:36.197Z,28.77
2018-10-18T01:00:05.329Z,28.67
2018-10-18T01:02:34.077Z,30.20
2018-10-18T01:05:02.761Z,29.00
2018-10-18T01:07:31.419Z,28.50
2018-10-18T01:10:00.060Z,28.57
2018-10-18T01:12:28.819Z,29.60
2018-10-18T01:14:57.348Z,27.17
2018-10-18T01:17:25.482Z,27.83
2018-10-18T01:19:54.144Z,30.00
2018-10-18T01:22:22.784Z,28.00
2018-10-18T01:24:51.420Z,31.47
2018-10-18T01:27:20.109Z,27.47
2018-10-18T01:29:48.805Z,29.40
2018-10-18T01:32:17.467Z,29.13
2018-10-18T01:34:46.072Z,27.43
2018-10-18T01:37:14.676Z,28.93
2018-10-18T01:39:43.313Z,27.43
2018-10-18T01:42:12.048Z,29.37
2018-10-18T01:44:40.685Z,29.87
2018-10-18T01:47:09.333Z,30.17
2018-10-18T01:49:38.025Z,29.67
2018-10-18T01:52:06.718Z,29.37
2018-10-18T01:54:35.328Z,28.97
2018-10-18T01:57:03.990Z,29.70
2018-10-18T01:59:32.620Z,29.57
2018-10-18T02:02:01.312Z,27.50
2018-10-18T02:04:30.022Z,28.40
2018-10-18T02:06:58.653Z,29.77
2018-10-18T02:09:27.358Z,29.60
2018-10-18T02:11:56.019Z,27.97
2018-10-18T02:14:24.660Z,29.27
2018-10-18T02:16:53.252Z,30.47
2018-10-18T02:19:22.042Z,28.97
2018-10-18T02:21:50.659Z,29.87
2018-10-18T02:24:19.293Z,31.47
2018-10-18T02:26:47.964Z,30.10
2018-10-18T02:29:16.580Z,30.60
2018-10-18T02:31:45.219Z,27.63
2018-10-18T02:34:13.896Z,30.70
2018-10-18T02:36:42.485Z,30.90
2018-10-18T02:39:11.286Z,31.00
2018-10-18T02:41:39.904Z,30.97
2018-10-18T02:44:08.561Z,32.37
2018-10-18T02:46:37.244Z,32.20
2018-10-18T02:49:05.949Z,32.97
2018-10-18T02:51:34.571Z,30.10
2018-10-18T02:54:03.389Z,31.10
2018-10-18T02:56:31.909Z,32.30
2018-10-18T02:59:00.577Z,33.80
2018-10-18T03:01:29.209Z,34.47
2018-10-18T03:03:57.825Z,33.57
2018-10-18T03:06:26.559Z,32.43
2018-10-18T03:08:55.176Z,33.17
2018-10-18T03:11:23.817Z,34.27
2018-10-18T03:13:52.532Z,33.47
2018-10-18T03:16:21.136Z,34.30
2018-10-18T03:18:49.823Z,33.90
2018-10-18T03:21:18.746Z,32.37
2018-10-18T03:23:47.352Z,33.33
2018-10-18T03:26:16.028Z,34.03
2018-10-18T03:28:44.681Z,34.37
2018-10-18T03:31:13.333Z,35.17
2018-10-18T03:33:42.009Z,35.70
2018-10-18T03:36:10.649Z,35.90
2018-10-18T03:38:39.327Z,34.53
2018-10-18T03:41:07.960Z,32.93
2018-10-18T03:43:36.629Z,34.67
2018-10-18T03:46:05.348Z,34.47
2018-10-18T03:48:34.503Z,35.40
2018-10-18T03:51:03.154Z,35.10
2018-10-18T03:53:31.789Z,36.93
2018-10-18T03:56:00.387Z,37.37
2018-10-18T03:58:29.073Z,37.53
2018-10-18T04:00:57.745Z,37.10
2018-10-18T04:03:26.400Z,38.30
2018-10-18T04:05:55.041Z,36.20
2018-10-18T04:08:23.724Z,40.10
2018-10-18T04:10:52.389Z,38.10
2018-10-18T04:13:21.121Z,39.77
2018-10-18T04:15:49.735Z,35.90
2018-10-18T04:18:18.443Z,38.67
2018-10-18T04:20:46.489Z,36.90
2018-10-18T04:23:19.313Z,37.37
2018-10-18T04:25:47.904Z,40.00
2018-10-18T04:28:16.548Z,40.10
2018-10-18T04:30:45.161Z,40.03
2018-10-18T04:33:14.028Z,40.50
2018-10-18T04:35:42.625Z,37.80
2018-10-18T04:38:11.232Z,39.83
2018-10-18T04:40:40.144Z,39.40
2018-10-18T04:43:08.876Z,37.77
2018-10-18T04:45:37.526Z,40.50
2018-10-18T04:48:06.356Z,40.70
2018-10-18T04:50:34.865Z,43.17
2018-10-18T04:53:03.613Z,41.10
2018-10-18T04:55:32.312Z,40.87
2018-10-18T04:58:01.173Z,40.10
2018-10-18T05:00:29.815Z,42.80
2018-10-18T05:02:58.484Z,43.00
2018-10-18T05:05:38.455Z,40.53
2018-10-18T05:08:07.094Z,40.73
2018-10-18T05:10:35.713Z,42.77
2018-10-18T05:13:04.544Z,43.20
2018-10-18T05:15:33.149Z,40.83
2018-10-18T05:18:01.894Z,41.67
2018-10-18T05:20:30.599Z,41.73
2018-10-18T05:22:59.255Z,39.93
2018-10-18T05:25:28.046Z,38.67
2018-10-18T05:27:56.705Z,36.57
2018-10-18T05:30:25.407Z,34.83
2018-10-18T05:32:54.044Z,37.83
2018-10-18T05:35:22.792Z,37.17
2018-10-18T05:37:51.473Z,35.30
2018-10-18T05:40:20.385Z,36.03
2018-10-18T05:42:49.364Z,32.47
2018-10-18T05:45:18.109Z,33.77
2018-10-18T05:47:46.777Z,33.90
2018-10-18T05:50:15.518Z,31.70
2018-10-18T05:52:44.129Z,31.67
2018-10-18T05:55:13.275Z,32.10
2018-10-18T05:57:42.325Z,33.97
2018-10-18T06:00:14.349Z,31.10
2018-10-18T06:02:43.081Z,32.63
2018-10-18T06:05:13.267Z,30.40
2018-10-18T06:07:42.412Z,31.20
2018-10-18T06:10:23.102Z,30.37
2018-10-18T06:12:52.226Z,30.73
2018-10-18T06:15:21.421Z,30.93
2018-10-18T06:17:50.213Z,31.40
2018-10-18T06:20:18.789Z,31.77
2018-10-18T06:22:47.505Z,31.77
2018-10-18T06:25:16.377Z,31.10
2018-10-18T06:27:45.061Z,30.97
2018-10-18T06:30:15.190Z,31.50
2018-10-18T06:32:43.993Z,29.87
2018-10-18T06:35:15.150Z,29.30
2018-10-18T06:37:43.938Z,29.30
2018-10-18T06:40:14.130Z,28.70
2018-10-18T06:42:43.043Z,28.07
2018-10-18T06:45:13.341Z,27.80
2018-10-18T06:47:42.598Z,29.20
2018-10-18T06:50:13.750Z,28.17
2018-10-18T06:52:42.808Z,27.77
2018-10-18T06:55:11.725Z,29.13
2018-10-18T06:57:41.446Z,30.90
2018-10-18T07:00:13.643Z,29.77
2018-10-18T07:02:42.831Z,31.33
2018-10-18T07:05:12.817Z,32.20
2018-10-18T07:07:42.260Z,34.13
2018-10-18T07:10:11.028Z,32.17
2018-10-18T07:12:40.224Z,33.20
2018-10-18T07:15:09.911Z,32.17
2018-10-18T07:17:39.529Z,34.57
2018-10-18T07:20:08.833Z,33.77
2018-10-18T07:22:38.305Z,35.23
2018-10-18T07:25:09.072Z,33.57
2018-10-18T07:27:38.136Z,36.20
2018-10-18T07:30:08.189Z,36.13
2018-10-18T07:32:37.009Z,38.20
2018-10-18T07:35:06.938Z,37.50
2018-10-18T07:37:36.622Z,39.33
2018-10-18T07:40:06.051Z,39.80
2018-10-18T07:42:34.816Z,38.10
2018-10-18T07:45:03.843Z,39.73
2018-10-18T07:47:32.591Z,36.40
2018-10-18T07:50:01.367Z,40.30
2018-10-18T07:52:30.253Z,41.40
2018-10-18T07:54:59.000Z,42.43
2018-10-18T07:57:27.793Z,41.20
2018-10-18T07:59:56.575Z,41.97
2018-10-18T08:02:25.324Z,46.00
2018-10-18T08:04:54.090Z,43.23
2018-10-18T08:07:22.960Z,42.00
2018-10-18T08:09:51.810Z,40.57
2018-10-18T08:12:20.601Z,42.70
2018-10-18T08:14:49.614Z,41.83
2018-10-18T08:17:18.383Z,42.03
2018-10-18T08:19:47.141Z,44.60
2018-10-18T08:22:15.977Z,48.17
2018-10-18T08:24:44.702Z,44.70
2018-10-18T08:27:13.617Z,44.50
2018-10-18T08:29:42.435Z,46.40
2018-10-18T08:32:11.225Z,43.67
2018-10-18T08:34:40.040Z,47.53
2018-10-18T08:37:08.869Z,47.20
2018-10-18T08:39:37.586Z,47.27
2018-10-18T08:42:06.468Z,49.47
2018-10-18T08:44:35.288Z,48.20
2018-10-18T08:47:04.114Z,47.80
2018-10-18T08:49:33.656Z,49.87
2018-10-18T08:52:02.466Z,47.27
2018-10-18T08:54:31.152Z,49.20
2018-10-18T08:56:59.880Z,46.37
2018-10-18T08:59:28.688Z,49.90
2018-10-18T09:01:57.514Z,49.50
2018-10-18T09:04:26.288Z,49.37
2018-10-18T09:06:55.100Z,50.10
2018-10-18T09:09:23.868Z,51.20
2018-10-18T09:11:52.577Z,50.97
2018-10-18T09:14:21.332Z,47.87
2018-10-18T09:16:50.088Z,52.70
2018-10-18T09:19:18.864Z,52.23
2018-10-18T09:21:48.788Z,54.03
2018-10-18T09:24:17.594Z,54.30
2018-10-18T09:26:46.432Z,54.60
2018-10-18T09:29:15.281Z,53.40
2018-10-18T09:31:44.053Z,53.20
2018-10-18T09:34:12.940Z,53.10
2018-10-18T09:36:41.912Z,52.87
2018-10-18T09:39:10.637Z,50.30
2018-10-18T09:41:39.344Z,54.97
2018-10-18T09:44:08.193Z,51.97
2018-10-18T09:46:37.374Z,56.57
2018-10-18T09:49:06.374Z,54.90
2018-10-18T09:51:35.206Z,58.63
2018-10-18T09:54:04.434Z,59.30
2018-10-18T09:56:34.257Z,52.87
2018-10-18T09:59:03.305Z,57.20
2018-10-18T10:01:37.361Z,58.00
2018-10-18T10:04:06.488Z,57.37
2018-10-18T10:06:35.868Z,57.13
2018-10-18T10:09:05.657Z,58.73
2018-10-18T10:11:34.485Z,54.63
2018-10-18T10:14:03.364Z,56.53
2018-10-18T10:16:32.134Z,56.63
2018-10-18T10:19:00.947Z,60.43
2018-10-18T10:21:29.650Z,57.57
2018-10-18T10:23:58.626Z,54.80
2018-10-18T10:26:27.426Z,53.43
2018-10-18T10:28:56.198Z,56.43
2018-10-18T10:31:24.971Z,56.00
2018-10-18T10:33:53.822Z,54.37
2018-10-18T10:36:22.561Z,55.00
2018-10-18T10:38:51.317Z,53.13
2018-10-18T10:41:20.080Z,54.00
2018-10-18T10:43:48.917Z,50.27
2018-10-18T10:46:17.817Z,50.70
2018-10-18T10:48:46.547Z,50.80
2018-10-18T10:51:15.398Z,52.13
2018-10-18T10:53:44.145Z,51.40
2018-10-18T10:56:12.952Z,54.13
2018-10-18T10:58:41.715Z,49.40
2018-10-18T11:01:11.891Z,50.10
2018-10-18T11:03:41.636Z,50.70
2018-10-18T11:06:10.885Z,50.57
2018-10-18T11:08:39.564Z,50.23
2018-10-18T11:11:08.737Z,51.57
2018-10-18T11:13:37.476Z,51.17
2018-10-18T11:16:06.680Z,48.63
2018-10-18T11:18:36.376Z,50.60
2018-10-18T11:21:06.240Z,51.30
2018-10-18T11:23:35.333Z,51.63
2018-10-18T11:26:04.359Z,50.33
2018-10-18T11:28:33.188Z,48.00
2018-10-18T11:31:02.081Z,50.20
2018-10-18T11:33:30.861Z,51.70
2018-10-18T11:35:59.603Z,48.80
2018-10-18T11:38:28.356Z,50.50
2018-10-18T11:40:57.126Z,49.60
2018-10-18T11:43:26.097Z,46.83
2018-10-18T11:45:54.964Z,47.43
2018-10-18T11:48:23.678Z,45.77
2018-10-18T11:50:52.424Z,45.23
2018-10-18T11:53:21.211Z,46.83
2018-10-18T11:55:50.027Z,47.47
2018-10-18T11:58:18.820Z,48.50
2018-10-18T12:00:47.580Z,50.77
2018-10-18T12:03:16.492Z,49.30
2018-10-18T12:05:45.372Z,46.87
2018-10-18T12:08:14.274Z,46.20
2018-10-18T12:10:42.973Z,47.73
2018-10-18T12:13:11.700Z,44.80
2018-10-18T12:15:40.505Z,48.47
2018-10-18T12:18:09.282Z,47.23
2018-10-18T12:20:38.460Z,43.33
2018-10-18T12:23:07.383Z,45.30
2018-10-18T12:25:36.221Z,43.23
2018-10-18T12:28:05.093Z,44.67
2018-10-18T12:30:33.897Z,46.33
2018-10-18T12:33:02.672Z,46.07
2018-10-18T12:35:31.399Z,43.50
2018-10-18T12:38:00.183Z,42.70
2018-10-18T12:40:29.151Z,44.80
2018-10-18T12:42:57.789Z,43.60
2018-10-18T12:45:26.754Z,42.70
2018-10-18T12:47:55.551Z,40.13
2018-10-18T12:50:24.459Z,41.30
2018-10-18T12:52:53.298Z,39.00
2018-10-18T12:55:22.080Z,39.27
2018-10-18T12:57:50.808Z,39.67
2018-10-18T13:00:19.734Z,39.40
2018-10-18T13:02:48.384Z,41.77
2018-10-18T13:05:17.113Z,41.70
2018-10-18T13:07:45.916Z,45.50
2018-10-18T13:10:14.689Z,41.30
2018-10-18T13:12:43.487Z,38.83
2018-10-18T13:15:12.480Z,39.30
2018-10-18T13:17:41.188Z,36.87
2018-10-18T13:20:10.811Z,38.30
2018-10-18T13:22:39.736Z,38.93
2018-10-18T13:25:09.982Z,36.57
2018-10-18T13:27:39.049Z,36.47
2018-10-18T13:30:09.327Z,34.57
2018-10-18T13:32:38.185Z,35.60
2018-10-18T13:35:07.399Z,34.03
2018-10-18T13:37:36.168Z,34.57
2018-10-18T13:40:06.225Z,34.30
2018-10-18T13:42:34.973Z,37.43
2018-10-18T13:45:04.109Z,35.77
2018-10-18T13:47:32.824Z,35.43
2018-10-18T13:50:01.686Z,34.67
2018-10-18T13:52:30.401Z,33.67
2018-10-18T13:54:59.229Z,35.47
2018-10-18T13:57:28.005Z,34.67
2018-10-18T14:00:17.583Z,33.40
2018-10-18T14:02:46.245Z,33.33
2018-10-18T14:05:15.228Z,36.20
2018-10-18T14:07:43.897Z,34.20
2018-10-18T14:10:12.817Z,33.20
2018-10-18T14:12:41.950Z,35.67
2018-10-18T14:15:10.864Z,37.90
2018-10-18T14:17:39.998Z,35.80
2018-10-18T14:20:09.100Z,35.30
2018-10-18T14:22:37.933Z,37.37
2018-10-18T14:25:06.837Z,37.90
2018-10-18T14:27:35.668Z,36.10
2018-10-18T14:30:04.980Z,35.43
2018-10-18T14:32:33.769Z,34.13
2018-10-18T14:35:02.722Z,35.70
2018-10-18T14:37:31.565Z,34.43
2018-10-18T14:40:00.396Z,36.40
2018-10-18T14:42:29.343Z,34.57
2018-10-18T14:44:58.180Z,33.90
2018-10-18T14:47:27.175Z,33.47
2018-10-18T14:49:56.126Z,35.00
2018-10-18T14:52:24.900Z,33.70
2018-10-18T14:54:54.075Z,31.43
2018-10-18T14:57:23.034Z,35.17
2018-10-18T14:59:52.710Z,33.40
2018-10-18T15:02:21.484Z,32.37
2018-10-18T15:04:50.342Z,31.00
2018-10-18T15:07:19.200Z,34.07
2018-10-18T15:09:47.989Z,31.17
2018-10-18T15:12:16.774Z,32.57
2018-10-18T15:14:45.568Z,33.23
2018-10-18T15:17:14.364Z,31.83
2018-10-18T15:19:43.122Z,32.40
2018-10-18T15:22:11.946Z,31.90
2018-10-18T15:24:40.769Z,31.03
2018-10-18T15:27:09.579Z,30.33
2018-10-18T15:29:38.346Z,32.97
2018-10-18T15:32:07.331Z,32.00
2018-10-18T15:34:36.160Z,32.77
2018-10-18T15:37:05.105Z,32.40
2018-10-18T15:39:33.894Z,33.30
2018-10-18T15:42:02.670Z,34.83
2018-10-18T15:44:31.503Z,32.37
2018-10-18T15:47:00.272Z,34.20
2018-10-18T15:49:29.149Z,36.17
2018-10-18T15:51:57.930Z,35.87
2018-10-18T15:54:26.857Z,36.33
2018-10-18T15:56:55.632Z,35.73
2018-10-18T15:59:24.444Z,35.00
2018-10-18T16:01:53.201Z,36.63
2018-10-18T16:04:22.054Z,37.50
2018-10-18T16:06:50.927Z,38.30
2018-10-18T16:09:19.709Z,39.67
2018-10-18T16:11:48.554Z,41.00
2018-10-18T16:14:17.335Z,37.03
2018-10-18T16:16:46.105Z,36.87
2018-10-18T16:19:14.873Z,39.00
2018-10-18T16:21:43.620Z,41.23
2018-10-18T16:24:12.384Z,38.50
2018-10-18T16:26:41.297Z,39.37
2018-10-18T16:29:10.160Z,38.27
2018-10-18T16:31:38.934Z,38.83
2018-10-18T16:34:07.749Z,39.10
2018-10-18T16:36:36.744Z,36.10
2018-10-18T16:39:08.317Z,37.67
2018-10-18T16:41:37.412Z,35.80
2018-10-18T16:44:06.623Z,36.30
2018-10-18T16:46:35.429Z,35.80
2018-10-18T16:49:04.366Z,35.70
2018-10-18T16:51:33.308Z,37.00
2018-10-18T16:54:02.356Z,37.67
2018-10-18T16:56:31.077Z,37.00
2018-10-18T16:58:59.981Z,38.87
2018-10-18T17:01:28.773Z,37.77
2018-10-18T17:03:57.732Z,38.57
2018-10-18T17:06:26.559Z,38.50
2018-10-18T17:08:55.381Z,39.73
2018-10-18T17:11:24.269Z,40.47
2018-10-18T17:13:53.027Z,38.40
2018-10-18T17:16:21.960Z,39.17
2018-10-18T17:18:50.869Z,39.37
2018-10-18T17:21:19.880Z,39.30
2018-10-18T17:23:48.673Z,37.43
2018-10-18T17:26:17.815Z,36.43
2018-10-18T17:28:46.646Z,36.47
2018-10-18T17:31:15.492Z,36.27
2018-10-18T17:33:44.333Z,35.40
2018-10-18T17:36:13.255Z,34.97
2018-10-18T17:38:42.025Z,32.53
2018-10-18T17:41:10.856Z,31.57
2018-10-18T17:43:39.721Z,33.17
2018-10-18T17:46:08.683Z,34.80
2018-10-18T17:48:37.501Z,34.97
2018-10-18T17:51:06.430Z,36.33
2018-10-18T17:53:35.260Z,34.50
2018-10-18T17:56:04.347Z,35.63
2018-10-18T17:58:33.140Z,37.10
2018-10-18T18:01:02.187Z,36.40
2018-10-18T18:03:31.273Z,35.90
2018-10-18T18:06:00.102Z,36.73
2018-10-18T18:08:28.980Z,35.90
2018-10-18T18:10:57.797Z,37.30
2018-10-18T18:13:26.706Z,36.83
2018-10-18T18:15:55.538Z,39.00
2018-10-18T18:18:24.340Z,36.03
2018-10-18T18:20:53.226Z,38.57
2018-10-18T18:23:22.092Z,36.50
2018-10-18T18:25:50.888Z,37.57
2018-10-18T18:28:19.687Z,37.77
2018-10-18T18:30:48.393Z,38.50
2018-10-18T18:33:17.079Z,34.47
2018-10-18T18:35:45.860Z,37.30
2018-10-18T18:38:14.649Z,35.53
2018-10-18T18:40:43.441Z,38.00
2018-10-18T18:43:12.124Z,37.60
2018-10-18T18:45:40.817Z,35.93
2018-10-18T18:48:09.748Z,37.77
2018-10-18T18:50:38.488Z,35.83
2018-10-18T18:53:07.290Z,36.10
2018-10-18T18:55:36.072Z,37.60
2018-10-18T18:58:04.821Z,36.80
2018-10-18T19:00:33.556Z,35.20
2018-10-18T19:03:02.345Z,37.07
2018-10-18T19:05:30.998Z,35.40
2018-10-18T19:07:59.678Z,38.07
2018-10-18T19:10:28.364Z,37.63
2018-10-18T19:12:57.005Z,37.47
2018-10-18T19:15:25.743Z,39.33
2018-10-18T19:17:54.450Z,38.10
2018-10-18T19:20:23.160Z,41.63
2018-10-18T19:22:51.961Z,42.43
2018-10-18T19:25:22.080Z,40.57
2018-10-18T19:27:50.822Z,41.43
2018-10-18T19:30:19.601Z,42.63
2018-10-18T19:32:48.332Z,41.70
2018-10-18T19:35:17.081Z,39.77
2018-10-18T19:37:45.772Z,40.60
2018-10-18T19:40:14.463Z,41.77
2018-10-18T19:42:43.143Z,43.33
2018-10-18T19:45:12.023Z,43.17
2018-10-18T19:47:40.799Z,41.57
2018-10-18T19:50:09.739Z,42.27
2018-10-18T19:52:38.529Z,42.80
2018-10-18T19:55:08.199Z,44.73
2018-10-18T19:57:36.900Z,45.70
2018-10-18T20:00:06.602Z,43.77
2018-10-18T20:02:35.438Z,40.50
2018-10-18T20:05:04.324Z,43.83
2018-10-18T20:07:33.085Z,44.83
2018-10-18T20:10:01.857Z,44.33
2018-10-18T20:12:30.527Z,42.70
2018-10-18T20:14:59.246Z,43.10
2018-10-18T20:17:28.065Z,44.53
2018-10-18T20:19:56.948Z,42.63
2018-10-18T20:22:25.575Z,43.60
2018-10-18T20:24:54.455Z,43.73
2018-10-18T20:27:23.067Z,44.80
2018-10-18T20:29:51.730Z,45.03
2018-10-18T20:32:20.462Z,43.60
2018-10-18T20:34:49.120Z,42.97
2018-10-18T20:37:18.004Z,47.30
2018-10-18T20:39:46.737Z,47.10
2018-10-18T20:42:15.370Z,45.37
2018-10-18T20:44:44.424Z,45.17
2018-10-18T20:47:13.216Z,47.33
2018-10-18T20:49:41.832Z,46.47
2018-10-18T20:52:10.533Z,44.63
2018-10-18T20:54:39.509Z,45.83
2018-10-18T20:57:08.251Z,45.00
2018-10-18T20:59:36.883Z,44.77
2018-10-18T21:02:05.708Z,46.03
2018-10-18T21:04:34.385Z,45.53
2018-10-18T21:07:03.077Z,46.00
2018-10-18T21:09:31.747Z,43.57
2018-10-18T21:14:27.692Z,46.57
2018-10-18T21:16:56.381Z,44.10
2018-10-18T21:19:25.068Z,43.53
2018-10-18T21:21:53.764Z,45.13
2018-10-18T21:24:23.188Z,43.93
2018-10-18T21:26:51.927Z,42.40
2018-10-18T21:29:20.632Z,45.60
2018-10-18T21:31:49.512Z,45.83
2018-10-18T21:34:18.263Z,45.90
2018-10-18T21:36:46.954Z,44.77
2018-10-18T21:39:25.492Z,44.50
2018-10-18T21:41:54.448Z,44.33
2018-10-18T21:44:24.868Z,47.30
2018-10-18T21:46:53.546Z,46.73
2018-10-18T21:49:22.345Z,45.80
2018-10-18T21:51:52.347Z,45.50
2018-10-18T21:54:21.101Z,46.40
2018-10-18T21:56:49.977Z,43.87
2018-10-18T21:59:18.662Z,42.70
2018-10-18T22:01:48.085Z,43.90
2018-10-18T22:04:17.540Z,45.30
2018-10-18T22:06:47.104Z,46.37
2018-10-18T22:09:16.260Z,43.83
2018-10-18T22:11:44.857Z,44.40
2018-10-18T22:14:13.886Z,45.23
2018-10-18T22:16:42.768Z,44.40
2018-10-18T22:19:11.452Z,44.10
2018-10-18T22:21:40.544Z,43.27
2018-10-18T22:24:10.987Z,44.17
2018-10-18T22:26:39.660Z,45.87
2018-10-18T22:29:08.462Z,43.50
2018-10-18T22:31:37.313Z,41.80
2018-10-18T22:34:06.372Z,42.33
2018-10-18T22:36:35.016Z,44.20
2018-10-18T22:39:04.965Z,43.43
2018-10-18T22:41:33.577Z,42.83
2018-10-18T22:44:02.296Z,42.43
2018-10-18T22:46:31.513Z,40.90
2018-10-18T22:49:01.168Z,43.40
2018-10-18T22:51:30.241Z,42.30
2018-10-18T22:53:58.924Z,41.40
2018-10-18T22:56:27.544Z,42.33
2018-10-18T22:58:56.221Z,40.37
2018-10-18T23:01:25.640Z,41.80
2018-10-18T23:03:54.323Z,42.20
2018-10-18T23:06:23.053Z,42.07
2018-10-18T23:08:51.693Z,42.53
2018-10-18T23:11:20.345Z,41.30
2018-10-18T23:13:48.956Z,43.03
2018-10-18T23:16:17.577Z,43.40
2018-10-18T23:18:46.575Z,45.40
2018-10-18T23:21:15.294Z,46.93
2018-10-18T23:23:44.475Z,46.07
2018-10-18T23:26:13.139Z,42.80
2018-10-18T23:28:41.773Z,45.83
2018-10-18T23:31:10.511Z,45.53
2018-10-18T23:33:39.280Z,47.70
2018-10-18T23:36:07.975Z,44.70
2018-10-18T23:38:36.685Z,46.27
2018-10-18T23:41:06.126Z,48.80
2018-10-18T23:43:34.693Z,49.47
2018-10-18T23:46:03.382Z,47.37
2018-10-18T23:48:32.017Z,47.57
2018-10-18T23:51:01.474Z,48.10
2018-10-18T23:53:30.317Z,45.67
2018-10-18T23:55:58.991Z,46.63
2018-10-18T23:58:27.683Z,45.97
